createdAt,value
2022-10-10T00:01:37.046Z,2.40
2022-10-10T00:04:05.157Z,1.83
2022-10-10T00:06:33.500Z,2.17
2022-10-10T00:09:02.353Z,2.00
2022-10-10T00:11:30.478Z,2.50
2022-10-10T00:13:57.918Z,2.20
2022-10-10T00:16:25.804Z,2.90
2022-10-10T00:18:55.161Z,2.10
2022-10-10T00:21:23.025Z,2.40
2022-10-10T00:23:50.240Z,2.40
2022-10-10T00:26:19.384Z,2.60
2022-10-10T00:28:47.770Z,2.63
2022-10-10T00:31:17.790Z,2.42
2022-10-10T00:33:46.105Z,2.83
2022-10-10T00:36:14.193Z,3.65
2022-10-10T00:38:41.968Z,3.65
2022-10-10T00:41:09.566Z,3.65
2022-10-10T00:43:37.380Z,3.72
2022-10-10T00:46:07.324Z,3.80
2022-10-10T00:48:44.010Z,3.95
2022-10-10T00:51:19.498Z,3.13
2022-10-10T00:53:54.213Z,2.95
2022-10-10T00:56:26.659Z,3.28
2022-10-10T00:58:58.514Z,3.05
2022-10-10T01:01:26.391Z,2.55
2022-10-10T01:04:01.206Z,3.22
2022-10-10T01:06:29.707Z,2.75
2022-10-10T01:09:01.909Z,2.60
2022-10-10T01:11:47.318Z,3.22
2022-10-10T01:14:34.176Z,3.22
2022-10-10T01:17:11.094Z,2.80
2022-10-10T01:20:26.615Z,2.70
2022-10-10T01:23:27.700Z,3.08
2022-10-10T01:26:18.905Z,2.53
2022-10-10T01:29:17.550Z,2.63
2022-10-10T01:31:54.125Z,2.70
2022-10-10T01:34:33.958Z,2.80
2022-10-10T01:37:36.794Z,2.88
2022-10-10T01:40:18.085Z,2.83
2022-10-10T01:42:53.566Z,2.70
2022-10-10T01:45:25.452Z,2.90
2022-10-10T01:47:54.750Z,2.80
2022-10-10T01:50:27.805Z,2.50
2022-10-10T01:53:09.846Z,2.63
2022-10-10T01:55:54.760Z,2.50
2022-10-10T01:58:30.127Z,2.38
2022-10-10T02:01:02.894Z,2.33
2022-10-10T02:03:36.239Z,2.47
2022-10-10T02:06:37.940Z,2.60
2022-10-10T02:09:13.144Z,2.53
2022-10-10T02:11:41.789Z,3.03
2022-10-10T02:14:17.340Z,2.92
2022-10-10T02:16:50.110Z,2.90
2022-10-10T02:19:20.015Z,3.05
2022-10-10T02:21:48.968Z,2.75
2022-10-10T02:24:18.572Z,2.60
2022-10-10T02:26:52.561Z,2.67
2022-10-10T02:29:24.800Z,3.20
2022-10-10T02:32:10.403Z,2.53
2022-10-10T02:34:47.898Z,2.67
2022-10-10T02:37:16.233Z,2.35
2022-10-10T02:39:49.069Z,2.60
2022-10-10T02:42:21.112Z,2.35
2022-10-10T02:44:51.758Z,2.63
2022-10-10T02:47:19.109Z,2.75
2022-10-10T02:49:46.466Z,2.80
2022-10-10T02:52:16.949Z,2.30
2022-10-10T02:54:44.683Z,2.47
2022-10-10T02:57:12.890Z,2.70
2022-10-10T02:59:40.340Z,2.78
2022-10-10T03:02:08.069Z,2.42
2022-10-10T03:04:36.592Z,2.33
2022-10-10T03:07:06.909Z,2.45
2022-10-10T03:09:34.312Z,2.40
2022-10-10T03:12:04.488Z,2.72
2022-10-10T03:14:33.948Z,2.70
2022-10-10T03:17:01.232Z,2.30
2022-10-10T03:19:28.876Z,2.53
2022-10-10T03:21:56.127Z,2.38
2022-10-10T03:24:25.567Z,2.55
2022-10-10T03:26:55.184Z,2.30
2022-10-10T03:29:24.896Z,2.20
2022-10-10T03:31:54.533Z,2.40
2022-10-10T03:34:21.702Z,2.60
2022-10-10T03:36:48.917Z,2.55
2022-10-10T03:39:16.131Z,2.28
2022-10-10T03:41:43.806Z,2.33
2022-10-10T03:44:11.118Z,2.47
2022-10-10T03:46:43.034Z,2.60
2022-10-10T03:49:13.322Z,2.65
2022-10-10T03:51:43.360Z,2.22
2022-10-10T03:54:10.638Z,2.20
2022-10-10T03:56:40.036Z,2.22
2022-10-10T03:59:07.410Z,2.38
2022-10-10T04:01:37.182Z,2.30
2022-10-10T04:04:05.156Z,2.65
2022-10-10T04:06:32.892Z,2.38
2022-10-10T04:09:00.529Z,2.60
2022-10-10T04:11:27.737Z,2.20
2022-10-10T04:13:54.926Z,2.25
2022-10-10T04:16:22.841Z,2.40
2022-10-10T04:18:52.858Z,2.22
2022-10-10T04:21:20.059Z,2.17
2022-10-10T04:23:47.266Z,2.13
2022-10-10T04:26:14.502Z,2.05
2022-10-10T04:28:43.938Z,2.30
2022-10-10T04:31:13.388Z,2.10
2022-10-10T04:33:42.944Z,2.25
2022-10-10T04:36:10.151Z,2.45
2022-10-10T04:38:39.571Z,2.30
2022-10-10T04:41:07.288Z,2.78
2022-10-10T04:43:34.760Z,2.75
2022-10-10T04:46:04.121Z,3.20
2022-10-10T04:48:31.614Z,3.00
2022-10-10T04:50:59.725Z,2.92
2022-10-10T04:53:29.313Z,2.92
2022-10-10T04:55:59.090Z,2.78
2022-10-10T04:58:26.949Z,2.83
2022-10-10T05:00:57.322Z,3.17
2022-10-10T05:03:25.955Z,2.80
2022-10-10T05:05:55.843Z,2.78
2022-10-10T05:08:25.290Z,2.40
2022-10-10T05:10:54.994Z,2.20
2022-10-10T05:13:22.157Z,2.22
2022-10-10T05:15:56.007Z,2.15
2022-10-10T05:18:23.886Z,2.45
2022-10-10T05:20:51.703Z,2.47
2022-10-10T05:23:21.133Z,2.17
2022-10-10T05:25:50.645Z,1.90
2022-10-10T05:28:18.802Z,2.15
2022-10-10T05:30:53.104Z,1.73
2022-10-10T05:33:22.516Z,1.95
2022-10-10T05:35:50.218Z,1.60
2022-10-10T05:38:22.546Z,1.98
2022-10-10T05:40:56.475Z,1.63
2022-10-10T05:43:23.716Z,1.92
2022-10-10T05:45:51.549Z,1.67
2022-10-10T05:48:19.220Z,1.80
2022-10-10T05:50:49.271Z,1.60
2022-10-10T05:53:19.183Z,2.47
2022-10-10T05:55:46.583Z,2.15
2022-10-10T05:58:14.125Z,1.98
2022-10-10T06:00:43.269Z,1.95
2022-10-10T06:03:14.051Z,1.90
2022-10-10T06:05:41.970Z,1.95
2022-10-10T06:08:11.829Z,1.80
2022-10-10T06:10:45.490Z,2.20
2022-10-10T06:13:23.081Z,1.90
2022-10-10T06:15:52.238Z,2.00
2022-10-10T06:18:19.449Z,1.80
2022-10-10T06:20:49.492Z,1.88
2022-10-10T06:23:21.835Z,1.80
2022-10-10T06:25:52.308Z,2.10
2022-10-10T06:28:21.023Z,2.40
2022-10-10T06:30:49.277Z,2.70
2022-10-10T06:33:19.110Z,2.83
2022-10-10T06:35:51.440Z,2.85
2022-10-10T06:38:21.218Z,3.40
2022-10-10T06:40:55.659Z,2.80
2022-10-10T06:43:27.808Z,2.95
2022-10-10T06:45:55.073Z,2.78
2022-10-10T06:48:25.666Z,2.60
2022-10-10T06:51:01.627Z,3.33
2022-10-10T06:53:31.559Z,3.13
2022-10-10T06:56:00.028Z,3.00
2022-10-10T06:58:32.001Z,2.78
2022-10-10T07:01:02.101Z,2.75
2022-10-10T07:03:31.374Z,2.67
2022-10-10T07:06:01.638Z,2.88
2022-10-10T07:08:29.884Z,2.30
2022-10-10T07:10:59.318Z,2.70
2022-10-10T07:13:28.764Z,2.78
2022-10-10T07:15:55.978Z,2.22
2022-10-10T07:18:23.634Z,2.13
2022-10-10T07:20:51.824Z,2.50
2022-10-10T07:23:24.262Z,2.55
2022-10-10T07:26:03.090Z,2.33
2022-10-10T07:28:30.341Z,2.53
2022-10-10T07:31:03.043Z,2.47
2022-10-10T07:33:34.998Z,2.30
2022-10-10T07:36:06.672Z,2.25
2022-10-10T07:38:35.571Z,2.25
2022-10-10T07:41:23.816Z,2.40
2022-10-10T07:43:55.939Z,2.40
2022-10-10T07:46:23.804Z,2.35
2022-10-10T07:48:51.079Z,2.38
2022-10-10T07:51:18.388Z,2.42
2022-10-10T07:53:48.818Z,2.20
2022-10-10T07:56:16.051Z,2.10
2022-10-10T07:58:43.788Z,2.40
2022-10-10T08:01:12.953Z,2.40
2022-10-10T08:03:41.557Z,2.72
2022-10-10T08:06:14.904Z,2.50
2022-10-10T08:08:50.713Z,2.53
2022-10-10T08:11:19.808Z,2.20
2022-10-10T08:13:47.192Z,2.80
2022-10-10T08:16:14.534Z,2.80
2022-10-10T08:18:41.745Z,3.00
2022-10-10T08:21:11.846Z,2.60
2022-10-10T08:23:39.077Z,2.67
2022-10-10T08:26:08.691Z,2.10
2022-10-10T08:28:37.379Z,2.05
2022-10-10T08:31:06.586Z,2.28
2022-10-10T08:33:37.107Z,2.20
2022-10-10T08:36:08.508Z,2.20
2022-10-10T08:38:38.320Z,2.28
2022-10-10T08:41:18.400Z,2.25
2022-10-10T08:43:52.034Z,1.90
2022-10-10T08:46:29.532Z,1.80
2022-10-10T08:48:58.112Z,2.00
2022-10-10T08:51:33.587Z,1.90
2022-10-10T08:54:06.882Z,1.70
2022-10-10T08:56:35.430Z,1.65
2022-10-10T08:59:15.082Z,1.90
2022-10-10T09:02:17.616Z,1.63
2022-10-10T09:04:35.837Z,1.75
2022-10-10T09:07:19.085Z,1.67
2022-10-10T09:09:55.053Z,2.08
2022-10-10T09:12:49.418Z,1.85
2022-10-10T09:15:33.680Z,1.42
2022-10-10T09:18:06.871Z,1.70
2022-10-10T09:21:04.204Z,1.80
2022-10-10T09:23:43.722Z,1.90
2022-10-10T09:26:17.895Z,2.05
2022-10-10T09:28:59.272Z,2.20
2022-10-10T09:31:33.601Z,1.67
2022-10-10T09:34:33.465Z,2.05
2022-10-10T09:37:02.776Z,1.60
2022-10-10T09:40:01.568Z,1.85
2022-10-10T09:42:35.598Z,1.83
2022-10-10T09:45:04.349Z,1.90
2022-10-10T09:47:33.887Z,2.20
2022-10-10T09:50:01.553Z,1.80
2022-10-10T09:52:31.413Z,2.17
2022-10-10T09:55:05.501Z,1.60
2022-10-10T09:57:42.617Z,1.73
2022-10-10T10:00:26.438Z,2.13
2022-10-10T10:03:15.097Z,1.60
2022-10-10T10:05:48.401Z,1.40
2022-10-10T10:08:37.520Z,1.58
2022-10-10T10:11:05.813Z,1.70
2022-10-10T10:13:37.560Z,1.50
2022-10-10T10:16:11.534Z,1.58
2022-10-10T10:18:43.807Z,1.75
2022-10-10T10:21:23.608Z,1.48
2022-10-10T10:24:00.767Z,1.70
2022-10-10T10:26:47.715Z,1.50
2022-10-10T10:29:34.298Z,1.55
2022-10-10T10:32:30.483Z,1.50
2022-10-10T10:35:17.825Z,1.60
2022-10-10T10:37:51.460Z,1.65
2022-10-10T10:40:39.762Z,1.40
2022-10-10T10:43:51.599Z,1.45
2022-10-10T10:46:39.759Z,1.40
2022-10-10T10:49:14.594Z,1.92
2022-10-10T10:52:05.515Z,1.33
2022-10-10T10:54:39.549Z,1.80
2022-10-10T11:00:41.235Z,1.60
2022-10-10T11:05:22.999Z,1.83
2022-10-10T11:06:42.081Z,1.30
2022-10-10T11:09:49.628Z,1.48
2022-10-10T11:12:48.864Z,1.20
2022-10-10T11:16:04.970Z,1.33
2022-10-10T11:18:27.893Z,1.52
2022-10-10T11:21:04.498Z,1.73
2022-10-10T11:23:39.330Z,1.42
2022-10-10T11:26:26.562Z,1.35
2022-10-10T11:29:21.467Z,1.42
2022-10-10T11:32:06.815Z,1.60
2022-10-10T11:34:43.160Z,1.23
2022-10-10T11:37:29.254Z,2.17
2022-10-10T11:40:02.145Z,1.42
2022-10-10T11:42:56.355Z,1.50
2022-10-10T11:45:28.617Z,1.52
2022-10-10T11:48:15.650Z,1.60
2022-10-10T11:50:44.461Z,0.98
2022-10-10T11:53:40.092Z,1.40
2022-10-10T11:56:32.574Z,1.40
2022-10-10T11:59:13.730Z,1.70
2022-10-10T12:01:50.295Z,2.25
2022-10-10T12:04:18.393Z,1.58
2022-10-10T12:07:08.564Z,1.67
2022-10-10T12:09:42.279Z,1.55
2022-10-10T12:12:15.371Z,1.70
2022-10-10T12:14:53.827Z,1.50
2022-10-10T12:17:26.908Z,1.73
2022-10-10T12:19:54.269Z,1.45
2022-10-10T12:22:30.682Z,1.50
2022-10-10T12:25:35.031Z,1.40
2022-10-10T12:28:18.546Z,1.75
2022-10-10T12:31:01.438Z,1.60
2022-10-10T12:33:41.969Z,1.30
2022-10-10T12:36:55.665Z,1.27
2022-10-10T12:39:28.410Z,1.63
2022-10-10T12:41:56.677Z,1.45
2022-10-10T12:44:39.008Z,1.38
2022-10-10T12:47:46.240Z,1.42
2022-10-10T12:50:26.330Z,1.50
2022-10-10T12:52:59.965Z,1.50
2022-10-10T12:55:39.824Z,1.15
2022-10-10T12:58:26.688Z,1.45
2022-10-10T13:01:06.444Z,1.52
2022-10-10T13:03:45.509Z,1.70
2022-10-10T13:06:43.436Z,1.67
2022-10-10T13:09:28.042Z,1.50
2022-10-10T13:12:08.500Z,1.55
2022-10-10T13:14:42.408Z,1.52
2022-10-10T13:17:41.809Z,1.65
2022-10-10T13:20:37.249Z,1.92
2022-10-10T13:23:13.787Z,1.75
2022-10-10T13:25:47.523Z,1.55
2022-10-10T13:28:20.288Z,1.88
2022-10-10T13:30:49.915Z,1.90
2022-10-10T13:33:34.005Z,1.55
2022-10-10T13:36:09.189Z,1.75
2022-10-10T13:38:36.489Z,2.38
2022-10-10T13:41:07.021Z,1.88
2022-10-10T13:43:36.538Z,1.90
2022-10-10T13:46:04.260Z,2.10
2022-10-10T13:48:42.526Z,2.10
2022-10-10T13:51:16.483Z,2.33
2022-10-10T13:53:57.214Z,2.50
2022-10-10T13:56:30.903Z,2.20
2022-10-10T13:59:13.118Z,2.33
2022-10-10T14:01:59.507Z,2.90
2022-10-10T14:04:44.696Z,2.38
2022-10-10T14:07:16.746Z,2.60
2022-10-10T14:09:59.751Z,2.63
2022-10-10T14:12:41.335Z,2.45
2022-10-10T14:15:43.525Z,2.40
2022-10-10T14:18:24.085Z,2.80
2022-10-10T14:20:53.312Z,2.50
2022-10-10T14:23:20.595Z,2.70
2022-10-10T14:25:49.496Z,3.70
2022-10-10T14:28:26.647Z,3.28
2022-10-10T14:30:56.458Z,3.35
2022-10-10T14:33:23.988Z,4.53
2022-10-10T14:35:53.081Z,4.55
2022-10-10T14:38:20.719Z,4.40
2022-10-10T14:40:51.354Z,4.18
2022-10-10T14:43:20.563Z,3.80
2022-10-10T14:45:49.956Z,4.07
2022-10-10T14:48:23.648Z,4.28
2022-10-10T14:50:51.364Z,4.45
2022-10-10T14:53:19.592Z,4.65
2022-10-10T14:55:47.363Z,4.15
2022-10-10T14:58:18.528Z,4.50
2022-10-10T15:00:48.672Z,4.30
2022-10-10T15:03:16.380Z,3.65
2022-10-10T15:05:46.165Z,3.63
2022-10-10T15:08:15.683Z,3.15
2022-10-10T15:10:46.139Z,2.47
2022-10-10T15:13:14.314Z,2.20
2022-10-10T15:15:41.851Z,1.77
2022-10-10T15:18:39.587Z,1.60
2022-10-10T15:21:09.175Z,1.58
2022-10-10T15:23:36.403Z,2.92
2022-10-10T15:26:09.193Z,1.83
2022-10-10T15:28:38.897Z,1.77
2022-10-10T15:31:07.153Z,1.67
2022-10-10T15:33:35.001Z,1.42
2022-10-10T15:36:10.411Z,1.42
2022-10-10T15:38:38.923Z,1.30
2022-10-10T15:41:10.750Z,1.27
2022-10-10T15:43:54.627Z,1.27
2022-10-10T15:46:24.137Z,1.40
2022-10-10T15:48:51.820Z,1.00
2022-10-10T15:51:20.323Z,1.00
2022-10-10T15:53:52.024Z,1.00
2022-10-10T15:56:23.935Z,1.02
2022-10-10T15:58:57.367Z,0.82
2022-10-10T16:03:54.167Z,0.65
2022-10-10T16:06:22.601Z,0.40
2022-10-10T16:08:55.883Z,0.43
2022-10-10T16:11:36.544Z,0.30
2022-10-10T16:14:03.730Z,0.57
2022-10-10T16:16:33.615Z,0.63
2022-10-10T16:19:01.398Z,0.68
2022-10-10T16:21:29.819Z,1.00
2022-10-10T16:23:58.259Z,0.95
2022-10-10T16:26:33.028Z,0.80
2022-10-10T16:29:02.067Z,0.47
2022-10-10T16:31:31.123Z,0.50
2022-10-10T16:33:59.340Z,0.80
2022-10-10T16:36:32.350Z,0.60
2022-10-10T16:39:00.452Z,0.60
2022-10-10T16:41:46.943Z,0.52
2022-10-10T16:44:15.346Z,0.65
2022-10-10T16:46:42.576Z,0.70
2022-10-10T16:49:16.278Z,0.80
2022-10-10T16:51:46.090Z,1.10
2022-10-10T16:54:13.320Z,1.10
2022-10-10T16:56:43.370Z,0.90
2022-10-10T16:59:10.647Z,0.90
2022-10-10T17:01:38.527Z,0.95
2022-10-10T17:04:08.831Z,1.00
2022-10-10T17:06:39.078Z,1.23
2022-10-10T17:09:11.502Z,1.30
2022-10-10T17:11:39.314Z,1.30
2022-10-10T17:14:07.147Z,1.17
2022-10-10T17:17:07.110Z,1.00
2022-10-10T17:19:21.988Z,0.88
2022-10-10T17:21:49.744Z,0.65
2022-10-10T17:24:19.628Z,1.20
2022-10-10T17:26:47.701Z,0.90
2022-10-10T17:29:17.360Z,1.15
2022-10-10T17:31:47.647Z,1.55
2022-10-10T17:34:17.328Z,0.73
2022-10-10T17:36:44.557Z,1.20
2022-10-10T17:39:13.362Z,1.00
2022-10-10T17:41:41.135Z,1.10
2022-10-10T17:44:10.799Z,1.17
2022-10-10T17:46:38.881Z,1.35
2022-10-10T17:49:08.172Z,1.10
2022-10-10T17:51:36.628Z,1.10
2022-10-10T17:54:09.912Z,1.15
2022-10-10T17:56:40.770Z,1.17
2022-10-10T17:59:08.193Z,1.45
2022-10-10T18:01:36.950Z,2.13
2022-10-10T18:04:04.948Z,1.60
2022-10-10T18:06:33.068Z,1.63
2022-10-10T18:09:00.994Z,1.35
2022-10-10T18:11:30.419Z,1.10
2022-10-10T18:14:00.685Z,1.67
2022-10-10T18:16:36.172Z,1.33
2022-10-10T18:19:05.895Z,1.60
2022-10-10T18:21:34.568Z,1.80
2022-10-10T18:24:04.159Z,2.00
2022-10-10T18:26:31.952Z,2.17
2022-10-10T18:28:59.438Z,2.50
2022-10-10T18:31:35.491Z,4.95
2022-10-10T18:34:06.533Z,3.70
2022-10-10T18:36:40.595Z,5.00
2022-10-10T18:39:12.179Z,5.03
2022-10-10T18:41:40.717Z,4.63
2022-10-10T18:44:14.393Z,3.63
2022-10-10T18:46:42.269Z,3.30
2022-10-10T18:49:13.485Z,2.40
2022-10-10T18:51:43.827Z,1.77
2022-10-10T18:54:16.744Z,1.70
2022-10-10T18:56:44.849Z,2.20
2022-10-10T18:59:22.196Z,1.77
2022-10-10T19:01:52.596Z,1.85
2022-10-10T19:04:22.850Z,1.98
2022-10-10T19:06:54.712Z,2.08
2022-10-10T19:09:24.337Z,1.80
2022-10-10T19:11:53.446Z,2.35
2022-10-10T19:14:23.782Z,2.05
2022-10-10T19:16:55.984Z,2.10
2022-10-10T19:19:23.954Z,1.95
2022-10-10T19:21:51.788Z,1.92
2022-10-10T19:24:22.411Z,1.67
2022-10-10T19:26:53.102Z,1.95
2022-10-10T19:29:21.065Z,1.90
2022-10-10T19:31:48.328Z,2.20
2022-10-10T19:34:15.578Z,2.20
2022-10-10T19:36:45.467Z,2.72
2022-10-10T19:39:15.118Z,2.90
2022-10-10T19:41:42.875Z,2.80
2022-10-10T19:44:10.193Z,3.45
2022-10-10T19:46:37.933Z,3.15
2022-10-10T19:49:05.875Z,2.90
2022-10-10T19:51:35.293Z,2.60
2022-10-10T19:54:03.072Z,2.92
2022-10-10T19:56:30.486Z,3.00
2022-10-10T19:59:00.379Z,3.47
2022-10-10T20:01:30.319Z,3.70
2022-10-10T20:04:01.213Z,3.75
2022-10-10T20:06:28.657Z,2.58
2022-10-10T20:08:56.157Z,3.42
2022-10-10T20:11:24.183Z,3.30
2022-10-10T20:13:57.448Z,3.33
2022-10-10T20:16:28.076Z,3.40
2022-10-10T20:18:58.000Z,5.03
2022-10-10T20:21:33.296Z,5.00
2022-10-10T20:24:06.814Z,4.43
2022-10-10T20:29:02.904Z,3.88
2022-10-10T20:31:33.116Z,3.55
2022-10-10T20:34:05.932Z,3.78
2022-10-10T20:36:35.084Z,4.93
2022-10-10T20:39:08.208Z,5.00
2022-10-10T20:41:38.369Z,4.45
2022-10-10T20:44:09.746Z,5.80
2022-10-10T20:46:39.295Z,5.70
2022-10-10T20:49:11.406Z,5.03
2022-10-10T20:51:40.571Z,6.05
2022-10-10T20:54:08.306Z,7.78
2022-10-10T20:56:36.037Z,9.05
2022-10-10T20:59:07.272Z,7.43
2022-10-10T21:01:37.321Z,7.13
2022-10-10T21:04:07.911Z,6.18
2022-10-10T21:06:36.958Z,5.82
2022-10-10T21:09:07.592Z,5.45
2022-10-10T21:11:35.386Z,5.47
2022-10-10T21:14:05.781Z,5.75
2022-10-10T21:16:35.936Z,4.90
2022-10-10T21:19:05.805Z,5.07
2022-10-10T21:21:35.017Z,5.10
2022-10-10T21:24:07.528Z,5.45
2022-10-10T21:26:40.167Z,4.60
2022-10-10T21:29:07.476Z,4.33
2022-10-10T21:31:37.858Z,4.32
2022-10-10T21:34:07.127Z,4.25
2022-10-10T21:36:35.993Z,4.50
2022-10-10T21:39:06.866Z,4.03
2022-10-10T21:41:35.348Z,4.20
2022-10-10T21:44:04.974Z,4.18
2022-10-10T21:46:36.799Z,4.00
2022-10-10T21:49:06.940Z,3.90
2022-10-10T21:51:40.295Z,3.88
2022-10-10T21:54:10.685Z,3.42
2022-10-10T21:56:38.296Z,3.63
2022-10-10T21:59:06.363Z,4.28
2022-10-10T22:01:38.335Z,3.05
2022-10-10T22:04:08.269Z,3.55
2022-10-10T22:06:35.582Z,3.53
2022-10-10T22:09:03.692Z,3.15
2022-10-10T22:11:34.282Z,3.47
2022-10-10T22:14:02.856Z,3.50
2022-10-10T22:16:33.912Z,3.13
2022-10-10T22:19:04.269Z,3.17
2022-10-10T22:21:33.207Z,2.83
2022-10-10T22:24:05.805Z,3.30
2022-10-10T22:26:36.153Z,3.42
2022-10-10T22:29:05.007Z,3.00
2022-10-10T22:31:32.410Z,3.20
2022-10-10T22:34:00.080Z,2.60
2022-10-10T22:36:29.956Z,3.15
2022-10-10T22:38:57.690Z,2.58
2022-10-10T22:41:27.707Z,2.95
2022-10-10T22:43:55.332Z,2.55
2022-10-10T22:46:22.591Z,2.92
2022-10-10T22:48:49.907Z,2.88
2022-10-10T22:51:18.650Z,2.55
2022-10-10T22:53:47.576Z,2.80
2022-10-10T22:56:17.380Z,2.63
2022-10-10T22:58:44.685Z,2.65
2022-10-10T23:01:15.598Z,2.72
2022-10-10T23:03:45.961Z,2.42
2022-10-10T23:06:13.831Z,2.63
2022-10-10T23:08:41.102Z,3.30
2022-10-10T23:11:08.331Z,2.60
2022-10-10T23:13:38.000Z,3.00
2022-10-10T23:16:05.887Z,3.20
2022-10-10T23:18:33.596Z,2.80
2022-10-10T23:21:00.817Z,3.00
2022-10-10T23:23:28.190Z,3.53
2022-10-10T23:25:55.546Z,3.42
2022-10-10T23:28:25.216Z,4.00
2022-10-10T23:30:52.865Z,4.47
2022-10-10T23:33:20.087Z,5.22
2022-10-10T23:35:57.953Z,4.35
2022-10-10T23:38:26.161Z,4.53
2022-10-10T23:40:54.081Z,3.92
2022-10-10T23:43:22.305Z,4.50
2022-10-10T23:45:50.248Z,4.22
2022-10-10T23:48:18.042Z,2.78
2022-10-10T23:50:47.512Z,2.42
2022-10-10T23:53:14.730Z,2.97
2022-10-10T23:55:41.910Z,3.08
2022-10-10T23:58:09.589Z,2.60
